createdAt,value
2018-11-04T09:31:18.833Z,1011.70
2018-11-04T09:32:18.338Z,1011.71
2018-11-04T09:33:18.292Z,1011.73
2018-11-04T09:34:18.248Z,1011.73
2018-11-04T09:35:18.341Z,1011.72
2018-11-04T09:36:18.436Z,1011.71
2018-11-04T09:37:18.316Z,1011.68
2018-11-04T09:38:18.522Z,1011.70
2018-11-04T09:39:18.028Z,1011.71
2018-11-04T09:40:17.983Z,1011.69
2018-11-04T09:41:18.039Z,1011.73
2018-11-04T09:42:17.894Z,1011.72
2018-11-04T09:43:17.950Z,1011.68
2018-11-04T09:44:17.910Z,1011.66
2018-11-04T09:45:18.222Z,1011.65
2018-11-04T09:46:17.820Z,1011.69
2018-11-04T09:47:17.678Z,1011.66
2018-11-04T09:48:17.730Z,1011.65
2018-11-04T09:49:17.586Z,1011.65
2018-11-04T09:50:17.543Z,1011.62
2018-11-04T19:35:09.870Z,1007.91
2018-11-04T19:36:09.271Z,1007.91
2018-11-04T19:37:09.391Z,1007.93
2018-11-04T19:38:09.186Z,1007.89
2018-11-04T19:39:09.140Z,1007.96
2018-11-04T19:40:09.100Z,1007.92
2018-11-04T19:41:09.059Z,1007.92
2018-11-04T20:06:56.468Z,1007.69
2018-11-04T20:07:57.049Z,1007.65
2018-11-04T20:08:56.382Z,1007.64
2018-11-04T20:09:56.444Z,1007.66
2018-11-04T20:10:56.293Z,1007.62
2018-11-04T20:11:56.253Z,1007.69
2018-11-04T20:12:56.310Z,1007.67
2018-11-04T20:13:56.373Z,1007.68
2018-11-04T20:14:56.434Z,1007.72
2018-11-04T20:15:56.077Z,1007.68
2018-11-04T20:16:56.099Z,1007.70
2018-11-04T20:17:55.988Z,1007.72
2018-11-04T20:18:55.944Z,1007.71
2018-11-04T20:19:55.978Z,1007.71
2018-11-04T20:20:56.223Z,1007.75
2018-11-04T20:21:56.064Z,1007.73
2018-11-04T20:22:55.773Z,1007.76
2018-11-04T20:23:55.726Z,1007.75
2018-11-04T20:24:55.688Z,1007.74
2018-11-04T20:25:55.649Z,1007.71
2018-11-04T20:26:55.606Z,1007.68
2018-11-04T20:27:55.553Z,1007.70
2018-11-04T20:28:55.960Z,1007.65
2018-11-04T20:29:55.464Z,1007.60
2018-11-04T20:30:55.422Z,1007.58
2018-11-04T20:31:55.828Z,1007.57
2018-11-04T20:32:55.334Z,1007.59
2018-11-04T20:33:55.670Z,1007.56
2018-11-04T20:34:55.246Z,1007.59
2018-11-04T20:35:55.609Z,1007.62
2018-11-04T20:36:55.163Z,1007.58
2018-11-04T20:37:55.118Z,1007.63
2018-11-04T20:39:55.031Z,1007.65
2018-11-04T20:40:55.184Z,1007.61
2018-11-04T20:42:54.897Z,1007.62
2018-11-04T20:43:55.112Z,1007.59
2018-11-04T20:44:54.846Z,1007.54
2018-11-04T20:45:54.766Z,1007.54
2018-11-04T20:46:54.726Z,1007.54
2018-11-04T20:47:54.755Z,1007.49
2018-11-04T20:48:54.987Z,1007.48
2018-11-04T20:49:54.594Z,1007.45
2018-11-04T20:50:54.850Z,1007.44
2018-11-04T20:51:54.543Z,1007.42
2018-11-04T20:53:54.468Z,1007.42
2018-11-04T20:54:54.374Z,1007.44
2018-11-04T20:55:54.338Z,1007.42
2018-11-04T20:56:54.287Z,1007.34
2018-11-04T20:57:54.566Z,1007.34
2018-11-04T20:58:54.559Z,1007.28
2018-11-04T20:59:54.306Z,1007.26
2018-11-04T21:00:54.113Z,1007.25
2018-11-04T21:01:54.147Z,1007.20
2018-11-04T21:02:54.025Z,1007.25
2018-11-04T21:03:54.104Z,1007.20
2018-11-04T21:04:54.241Z,1007.20
2018-11-04T21:05:53.893Z,1007.18
2018-11-04T21:06:53.851Z,1007.12
2018-11-04T21:07:53.830Z,1007.20
2018-11-04T21:08:53.965Z,1007.23
2018-11-04T21:09:53.784Z,1007.20
2018-11-04T21:10:53.676Z,1007.24
2018-11-04T21:11:54.086Z,1007.16
2018-11-04T21:12:53.591Z,1007.18
2018-11-04T21:13:53.773Z,1007.21
2018-11-04T21:14:53.508Z,1007.20
2018-11-04T21:15:53.503Z,1007.20
2018-11-04T21:16:53.824Z,1007.25
2018-11-04T21:17:53.371Z,1007.24
2018-11-04T21:18:53.626Z,1007.27
2018-11-04T21:19:53.585Z,1007.23
2018-11-04T21:20:53.239Z,1007.27
2018-11-04T21:21:53.197Z,1007.27
2018-11-04T21:22:53.152Z,1007.27
2018-11-04T21:23:53.509Z,1007.28
2018-11-04T21:24:53.078Z,1007.29
2018-11-04T21:25:53.298Z,1007.27
2018-11-04T21:26:52.985Z,1007.22
2018-11-04T21:27:52.957Z,1007.20
2018-11-04T21:28:53.084Z,1007.22
2018-11-04T21:29:53.123Z,1007.23
2018-11-04T21:30:52.806Z,1007.21
2018-11-04T21:31:52.782Z,1007.20
2018-11-04T21:32:52.965Z,1007.14
2018-11-04T21:33:52.672Z,1007.17
2018-11-04T21:34:52.629Z,1007.10
2018-11-04T21:35:52.588Z,1007.18
2018-11-04T21:36:52.542Z,1007.16
2018-11-04T21:37:52.795Z,1007.23
2018-11-04T21:38:52.453Z,1007.25
2018-11-04T21:39:52.712Z,1007.27
2018-11-04T21:40:52.372Z,1007.20
2018-11-04T21:41:52.327Z,1007.17
2018-11-04T21:42:52.427Z,1007.11
2018-11-04T21:43:52.897Z,1007.11
2018-11-04T21:44:52.295Z,1007.10
2018-11-04T21:45:52.149Z,1007.10
2018-11-04T21:46:52.357Z,1007.10
2018-11-04T21:47:52.066Z,1007.10
2018-11-04T21:48:52.018Z,1007.07
2018-11-04T21:49:51.981Z,1007.05
2018-11-04T21:50:52.324Z,1007.07
2018-11-04T21:51:52.047Z,1007.09
2018-11-04T21:52:51.846Z,1007.09
2018-11-04T21:53:52.126Z,1007.15
2018-11-04T21:54:51.959Z,1007.19
2018-11-04T21:55:51.782Z,1007.18
2018-11-04T21:56:51.673Z,1007.17
2018-11-04T21:57:51.778Z,1007.14
2018-11-04T21:58:51.586Z,1007.09
2018-11-04T21:59:51.542Z,1007.18
2018-11-04T22:00:51.506Z,1007.17
2018-11-04T22:01:51.475Z,1007.21
2018-11-04T22:02:51.583Z,1007.15
2018-11-04T22:03:51.589Z,1007.14
2018-11-04T22:04:51.396Z,1007.09
2018-11-04T22:05:51.277Z,1007.07
2018-11-04T22:06:51.483Z,1006.98
2018-11-04T22:07:51.192Z,1006.98
2018-11-04T22:08:51.149Z,1006.99
2018-11-04T22:09:51.116Z,1006.98
2018-11-04T22:10:51.059Z,1007.01
2018-11-04T22:11:51.067Z,1007.02
2018-11-04T22:12:51.066Z,1007.01
2018-11-04T22:13:51.321Z,1006.96
2018-11-04T22:14:50.987Z,1007.00
2018-11-04T22:15:50.842Z,1006.89
2018-11-04T22:16:50.795Z,1006.90
2018-11-04T22:17:50.754Z,1006.86
2018-11-04T22:18:50.713Z,1006.76
2018-11-04T22:19:50.669Z,1006.76
2018-11-04T22:20:50.925Z,1006.73
2018-11-04T22:21:50.583Z,1006.70
2018-11-04T22:22:50.536Z,1006.74
2018-11-04T22:23:50.554Z,1006.76
2018-11-04T22:24:50.445Z,1006.78
2018-11-04T22:25:50.404Z,1006.82
2018-11-04T22:26:50.363Z,1006.74
2018-11-04T22:27:50.570Z,1006.79
2018-11-04T22:28:50.276Z,1006.70
2018-11-04T22:29:50.432Z,1006.68
2018-11-04T22:30:50.463Z,1006.69
2018-11-04T22:31:50.143Z,1006.70
2018-11-04T22:32:50.102Z,1006.67
2018-11-04T22:33:50.088Z,1006.69
2018-11-04T22:34:50.266Z,1006.67
2018-11-04T22:35:49.987Z,1006.65
2018-11-04T22:36:50.273Z,1006.63
2018-11-04T22:37:49.890Z,1006.61
2018-11-04T22:38:49.846Z,1006.57
2018-11-04T22:39:49.793Z,1006.57
2018-11-04T22:40:49.751Z,1006.58
2018-11-04T22:41:49.954Z,1006.60
2018-11-04T22:42:49.761Z,1006.66
2018-11-04T22:43:49.618Z,1006.67
2018-11-04T22:44:49.574Z,1006.68
2018-11-04T22:45:49.533Z,1006.69
2018-11-04T22:46:49.500Z,1006.71
2018-11-04T22:47:49.445Z,1006.66
2018-11-04T22:48:49.663Z,1006.65
2018-11-04T22:49:49.400Z,1006.67
2018-11-04T22:50:49.322Z,1006.66
2018-11-04T22:51:49.269Z,1006.71
2018-11-04T22:52:49.224Z,1006.67
2018-11-04T22:53:49.184Z,1006.68
2018-11-04T22:54:49.155Z,1006.67
2018-11-04T22:55:49.356Z,1006.75
2018-11-04T22:56:49.054Z,1006.68
2018-11-04T22:57:49.030Z,1006.72
2018-11-04T22:58:48.964Z,1006.60
2018-11-04T22:59:48.919Z,1006.70
2018-11-04T23:00:48.879Z,1006.63
2018-11-04T23:01:48.898Z,1006.60
2018-11-04T23:02:49.042Z,1006.58
2018-11-04T23:03:48.825Z,1006.60
2018-11-04T23:04:48.702Z,1006.58
2018-11-04T23:05:48.657Z,1006.57
2018-11-04T23:06:48.645Z,1006.58
2018-11-04T23:07:48.569Z,1006.60
2018-11-04T23:08:48.525Z,1006.62
2018-11-04T23:09:48.732Z,1006.53
2018-11-04T23:10:48.437Z,1006.55
2018-11-04T23:11:48.393Z,1006.51
2018-11-04T23:12:48.348Z,1006.48
2018-11-04T23:13:48.632Z,1006.47
2018-11-04T23:14:48.264Z,1006.43
2018-11-04T23:15:48.224Z,1006.38
2018-11-04T23:16:48.427Z,1006.34
2018-11-04T23:17:48.129Z,1006.34
2018-11-04T23:18:48.183Z,1006.34
2018-11-04T23:19:48.044Z,1006.38
2018-11-04T23:20:48.010Z,1006.33
2018-11-04T23:21:47.965Z,1006.42
2018-11-04T23:22:47.913Z,1006.44
2018-11-04T23:23:48.169Z,1006.43
2018-11-04T23:24:47.824Z,1006.44
2018-11-04T23:25:47.898Z,1006.44
2018-11-04T23:26:47.754Z,1006.41
2018-11-04T23:27:47.858Z,1006.44
2018-11-04T23:28:47.651Z,1006.38
2018-11-04T23:29:47.945Z,1006.40
2018-11-04T23:30:47.816Z,1006.39
2018-11-04T23:31:47.522Z,1006.39
2018-11-04T23:32:47.477Z,1006.36
2018-11-04T23:33:47.431Z,1006.34
2018-11-04T23:34:47.390Z,1006.30
2018-11-04T23:35:47.350Z,1006.24
2018-11-04T23:36:47.298Z,1006.20
2018-11-04T23:37:47.504Z,1006.17
2018-11-04T23:38:47.214Z,1006.19
2018-11-04T23:39:47.169Z,1006.13
2018-11-04T23:40:47.124Z,1006.16
2018-11-04T23:41:47.180Z,1006.16
2018-11-04T23:42:47.039Z,1006.11
2018-11-04T23:43:47.006Z,1006.18
2018-11-04T23:44:47.198Z,1006.20
2018-11-04T23:45:46.914Z,1006.18
2018-11-04T23:46:46.862Z,1006.20
2018-11-04T23:47:46.819Z,1006.16
2018-11-04T23:48:46.773Z,1006.15
2018-11-04T23:49:46.731Z,1006.12
2018-11-04T23:50:46.686Z,1006.13
2018-11-04T23:51:46.903Z,1006.11
2018-11-04T23:52:46.598Z,1006.09
2018-11-04T23:53:46.603Z,1006.11
2018-11-04T23:54:46.515Z,1006.05
2018-11-04T23:55:46.469Z,1006.15
2018-11-04T23:56:46.423Z,1006.15
2018-11-04T23:57:46.379Z,1006.18
2018-11-04T23:58:46.640Z,1006.14
2018-11-04T23:59:46.293Z,1006.19
